Time;durP1;ratioP1;P1;durP2;ratioP2;P2;SDS_P1;SDS_P2;PMS_P1;PMS_P2;Temp;Humidity;BMP_temperature;BMP_pressure;BME280_temperature;BME280_humidity;BME280_pressure;Samples;Min_cycle;Max_cycle;Signal;HPM_P1;HPM_P2
2024/03/25 00:00:30;;;;;;;8.65;3.20;;;;;;;;;;5053339;28;20095;-67
2024/03/25 00:03:16;;;;;;;5.65;2.67;;;;;;;;;;5051916;28;20078;-67
2024/03/25 00:06:01;;;;;;;7.47;3.08;;;;;;;;;;5050151;28;20104;-66
2024/03/25 00:08:47;;;;;;;10.20;2.85;;;;;;;;;;5046317;28;20029;-67
2024/03/25 00:11:33;;;;;;;5.25;2.50;;;;;;;;;;5031957;28;20487;-67
2024/03/25 00:14:18;;;;;;;13.18;4.05;;;;;;;;;;5034275;28;20560;-67
2024/03/25 00:17:04;;;;;;;6.07;2.92;;;;;;;;;;5043539;28;20444;-67
2024/03/25 00:19:52;;;;;;;11.07;3.13;;;;;;;;;;5055163;28;20102;-67
2024/03/25 00:22:38;;;;;;;8.55;2.95;;;;;;;;;;5044822;28;20023;-67
2024/03/25 00:25:24;;;;;;;9.25;3.38;;;;;;;;;;5070044;28;20421;-66
2024/03/25 00:28:09;;;;;;;6.30;2.03;;;;;;;;;;5033354;28;20038;-67
2024/03/25 00:30:55;;;;;;;7.03;2.47;;;;;;;;;;5032712;28;20055;-67
2024/03/25 00:33:41;;;;;;;7.95;3.15;;;;;;;;;;5043622;28;20033;-67
2024/03/25 00:36:26;;;;;;;8.82;2.33;;;;;;;;;;5041909;28;20025;-67
2024/03/25 00:39:13;;;;;;;9.30;2.25;;;;;;;;;;5032614;28;20072;-67
2024/03/25 00:41:58;;;;;;;5.22;2.70;;;;;;;;;;5031429;28;20108;-67
2024/03/25 00:44:44;;;;;;;16.23;2.75;;;;;;;;;;5034371;28;20475;-67
2024/03/25 00:47:30;;;;;;;8.85;2.50;;;;;;;;;;5034947;28;20037;-67
2024/03/25 00:50:15;;;;;;;4.53;2.25;;;;;;;;;;5035392;28;20026;-67
2024/03/25 00:53:01;;;;;;;5.00;2.10;;;;;;;;;;5042127;28;20501;-67
2024/03/25 00:55:46;;;;;;;7.55;3.25;;;;;;;;;;5056294;28;20402;-67
2024/03/25 00:58:32;;;;;;;6.60;2.53;;;;;;;;;;5056746;28;20039;-66
2024/03/25 01:01:18;;;;;;;10.55;2.45;;;;;;;;;;5057033;28;20025;-67
2024/03/25 01:04:03;;;;;;;6.30;2.60;;;;;;;;;;5041435;28;20061;-67
2024/03/25 01:06:49;;;;;;;3.15;2.33;;;;;;;;;;5037066;28;20479;-66
2024/03/25 01:09:35;;;;;;;6.90;1.70;;;;;;;;;;5055407;28;20055;-66
2024/03/25 01:12:20;;;;;;;4.32;2.00;;;;;;;;;;5054074;28;20044;-66
2024/03/25 01:15:07;;;;;;;8.05;1.92;;;;;;;;;;5036229;28;20064;-67
2024/03/25 01:17:53;;;;;;;7.25;2.90;;;;;;;;;;5035187;28;20386;-67
2024/03/25 01:20:38;;;;;;;5.68;1.52;;;;;;;;;;5044310;28;20380;-67
2024/03/25 01:23:24;;;;;;;5.93;2.17;;;;;;;;;;5036247;28;20025;-66
2024/03/25 01:26:10;;;;;;;5.90;1.95;;;;;;;;;;5040696;28;21269;-67
2024/03/25 01:28:56;;;;;;;6.63;1.98;;;;;;;;;;5036081;28;20031;-66
2024/03/25 01:31:41;;;;;;;5.47;2.00;;;;;;;;;;5033475;28;20061;-67
2024/03/25 01:34:27;;;;;;;5.10;1.95;;;;;;;;;;5044300;28;20013;-67
2024/03/25 01:37:12;;;;;;;7.60;2.17;;;;;;;;;;5042587;28;20025;-67
2024/03/25 01:39:58;;;;;;;7.82;2.10;;;;;;;;;;5033804;28;20025;-67
2024/03/25 01:42:44;;;;;;;6.40;1.92;;;;;;;;;;5039218;28;20029;-67
2024/03/25 01:45:34;;;;;;;7.85;1.90;;;;;;;;;;5039315;28;20060;-67
2024/03/25 01:48:19;;;;;;;6.18;2.15;;;;;;;;;;5052930;28;20486;-66
2024/03/25 01:51:05;;;;;;;7.13;2.25;;;;;;;;;;5054999;28;20458;-66
2024/03/25 01:53:52;;;;;;;5.95;1.98;;;;;;;;;;5044879;28;20083;-66
2024/03/25 01:56:38;;;;;;;4.90;2.05;;;;;;;;;;5033816;28;20104;-67
2024/03/25 01:59:25;;;;;;;4.07;2.67;;;;;;;;;;5054722;28;20485;-67
2024/03/25 02:02:11;;;;;;;7.53;2.40;;;;;;;;;;5039728;28;20096;-66
2024/03/25 02:04:57;;;;;;;5.22;3.13;;;;;;;;;;5034021;28;20399;-66
2024/03/25 02:07:43;;;;;;;5.43;2.38;;;;;;;;;;5036223;28;20117;-67
2024/03/25 02:10:29;;;;;;;4.18;2.20;;;;;;;;;;5034539;28;20514;-67
2024/03/25 02:13:15;;;;;;;7.78;2.47;;;;;;;;;;5043334;28;20029;-67
2024/03/25 02:16:02;;;;;;;4.63;2.03;;;;;;;;;;5039116;28;20020;-66
2024/03/25 02:18:47;;;;;;;4.40;2.10;;;;;;;;;;5052076;28;20021;-67
2024/03/25 02:21:33;;;;;;;6.50;2.33;;;;;;;;;;5043902;28;20445;-67
2024/03/25 02:24:20;;;;;;;10.13;2.55;;;;;;;;;;5053265;28;20466;-66
2024/03/25 02:27:07;;;;;;;6.82;2.40;;;;;;;;;;5047741;28;20029;-67
2024/03/25 02:29:54;;;;;;;5.13;1.92;;;;;;;;;;5034403;28;20110;-67
2024/03/25 02:32:40;;;;;;;5.38;1.63;;;;;;;;;;5034935;28;20486;-66
2024/03/25 02:35:26;;;;;;;4.18;1.88;;;;;;;;;;5035613;28;20104;-67
2024/03/25 02:38:14;;;;;;;4.63;2.60;;;;;;;;;;5039235;28;20418;-67
2024/03/25 02:40:59;;;;;;;3.95;1.90;;;;;;;;;;5044568;28;20090;-66
2024/03/25 02:43:45;;;;;;;8.32;2.42;;;;;;;;;;5052410;28;20021;-67
2024/03/25 02:46:31;;;;;;;7.55;2.28;;;;;;;;;;5039529;28;20033;-67
2024/03/25 02:49:16;;;;;;;8.52;2.35;;;;;;;;;;5044688;28;20045;-67
2024/03/25 02:52:02;;;;;;;5.60;1.83;;;;;;;;;;5035712;28;20577;-67
2024/03/25 02:54:48;;;;;;;7.20;1.92;;;;;;;;;;5034324;28;20022;-67
2024/03/25 02:57:33;;;;;;;8.02;2.35;;;;;;;;;;5035940;28;20025;-67
2024/03/25 03:00:19;;;;;;;5.05;2.30;;;;;;;;;;5032673;28;20029;-67
2024/03/25 03:03:05;;;;;;;4.70;1.55;;;;;;;;;;5048260;28;20025;-67
2024/03/25 03:05:50;;;;;;;3.65;2.00;;;;;;;;;;5052963;28;20032;-66
2024/03/25 03:08:36;;;;;;;6.43;2.15;;;;;;;;;;5032799;28;20056;-67
2024/03/25 03:11:21;;;;;;;3.25;2.13;;;;;;;;;;5033693;28;20505;-67
2024/03/25 03:14:07;;;;;;;3.13;1.85;;;;;;;;;;5041266;28;20022;-67
2024/03/25 03:16:54;;;;;;;5.85;2.17;;;;;;;;;;5032160;28;20028;-67
2024/03/25 03:19:40;;;;;;;5.07;1.85;;;;;;;;;;5041762;28;20029;-67
2024/03/25 03:22:25;;;;;;;3.83;2.05;;;;;;;;;;5031538;28;20056;-66
2024/03/25 03:25:11;;;;;;;5.18;1.98;;;;;;;;;;5045244;28;20491;-67
2024/03/25 03:27:57;;;;;;;5.93;2.13;;;;;;;;;;5052250;28;20033;-67
2024/03/25 03:30:43;;;;;;;3.28;2.03;;;;;;;;;;5050278;28;20045;-67
2024/03/25 03:33:28;;;;;;;3.72;1.73;;;;;;;;;;5033954;28;20029;-67
2024/03/25 03:36:15;;;;;;;3.90;1.83;;;;;;;;;;5039809;28;20104;-67
2024/03/25 03:39:03;;;;;;;5.78;2.22;;;;;;;;;;5033603;28;20100;-67
2024/03/25 03:41:48;;;;;;;3.75;2.10;;;;;;;;;;5036085;28;20032;-67
2024/03/25 03:44:34;;;;;;;6.30;1.65;;;;;;;;;;5033851;28;20087;-67
2024/03/25 03:47:20;;;;;;;8.57;2.20;;;;;;;;;;5033301;28;20061;-67
2024/03/25 03:50:06;;;;;;;3.15;1.85;;;;;;;;;;5033818;28;20057;-67
2024/03/25 03:52:51;;;;;;;5.63;2.05;;;;;;;;;;5032873;28;20036;-67
2024/03/25 03:55:37;;;;;;;4.05;2.00;;;;;;;;;;5041891;28;20442;-67
2024/03/25 03:58:23;;;;;;;2.17;1.70;;;;;;;;;;5047285;28;20108;-67
2024/03/25 04:01:16;;;;;;;4.55;2.50;;;;;;;;;;5041613;28;20433;-67
2024/03/25 04:04:01;;;;;;;5.18;1.98;;;;;;;;;;5050345;28;20020;-67
2024/03/25 04:06:47;;;;;;;3.10;1.75;;;;;;;;;;5051108;28;20040;-66
2024/03/25 04:09:33;;;;;;;4.47;1.70;;;;;;;;;;5035566;28;20509;-67
2024/03/25 04:12:19;;;;;;;4.30;2.15;;;;;;;;;;5041665;28;20060;-67
2024/03/25 04:15:05;;;;;;;7.72;2.25;;;;;;;;;;5051534;28;20021;-67
2024/03/25 04:17:51;;;;;;;2.03;1.58;;;;;;;;;;5045232;28;20506;-67
2024/03/25 04:20:40;;;;;;;2.38;1.85;;;;;;;;;;5036235;28;20053;-66
2024/03/25 04:23:26;;;;;;;4.18;2.20;;;;;;;;;;5049996;28;20517;-66
2024/03/25 04:26:12;;;;;;;3.80;1.80;;;;;;;;;;5027522;28;20040;-67
2024/03/25 04:28:57;;;;;;;2.67;1.70;;;;;;;;;;5050708;28;20068;-66
2024/03/25 04:31:43;;;;;;;6.57;2.15;;;;;;;;;;5055832;28;20028;-67
2024/03/25 04:34:29;;;;;;;3.03;1.92;;;;;;;;;;5076009;28;20059;-66
2024/03/25 04:37:15;;;;;;;6.32;2.28;;;;;;;;;;5076594;28;20043;-67
2024/03/25 04:40:02;;;;;;;4.30;1.92;;;;;;;;;;5076552;28;20477;-66
2024/03/25 04:42:47;;;;;;;4.68;1.90;;;;;;;;;;5076932;28;20028;-67
2024/03/25 04:45:33;;;;;;;5.55;1.33;;;;;;;;;;5076731;28;20021;-67
2024/03/25 04:48:18;;;;;;;5.18;2.22;;;;;;;;;;5076200;28;20024;-67
2024/03/25 04:51:04;;;;;;;4.03;1.83;;;;;;;;;;5076097;28;20108;-67
2024/03/25 04:53:50;;;;;;;3.80;1.95;;;;;;;;;;5076275;28;20024;-67
2024/03/25 04:56:35;;;;;;;5.88;1.90;;;;;;;;;;5076391;28;20516;-67
2024/03/25 04:59:21;;;;;;;8.40;1.77;;;;;;;;;;5076809;28;20043;-67
2024/03/25 05:02:08;;;;;;;3.33;2.03;;;;;;;;;;5075755;28;20107;-67
2024/03/25 05:04:54;;;;;;;2.40;1.77;;;;;;;;;;5061347;28;20020;-67
2024/03/25 05:07:39;;;;;;;5.38;1.92;;;;;;;;;;5076320;28;20029;-67
2024/03/25 05:10:25;;;;;;;3.83;1.52;;;;;;;;;;5076030;28;20159;-67
2024/03/25 05:13:11;;;;;;;2.60;1.58;;;;;;;;;;5076341;28;20024;-67
2024/03/25 05:15:56;;;;;;;3.15;2.05;;;;;;;;;;5074491;28;20016;-67
2024/03/25 05:18:42;;;;;;;5.57;2.65;;;;;;;;;;5075611;28;20467;-67
2024/03/25 05:21:27;;;;;;;5.20;2.00;;;;;;;;;;5075773;28;20056;-67
2024/03/25 05:24:13;;;;;;;2.47;1.75;;;;;;;;;;5075933;28;20035;-67
2024/03/25 05:26:59;;;;;;;4.55;1.65;;;;;;;;;;5074957;28;20111;-67
2024/03/25 05:29:44;;;;;;;2.72;1.73;;;;;;;;;;5074440;28;20490;-67
2024/03/25 05:32:30;;;;;;;3.50;2.50;;;;;;;;;;5075519;28;20445;-67
2024/03/25 05:35:15;;;;;;;4.45;1.90;;;;;;;;;;5074828;28;20086;-67
2024/03/25 05:38:03;;;;;;;2.95;2.10;;;;;;;;;;5075583;28;20024;-67
2024/03/25 05:40:48;;;;;;;5.93;1.95;;;;;;;;;;5075537;28;20020;-67
2024/03/25 05:43:34;;;;;;;5.15;2.67;;;;;;;;;;5075387;28;20020;-67
2024/03/25 05:46:19;;;;;;;4.15;2.00;;;;;;;;;;5075144;28;20020;-67
2024/03/25 05:49:05;;;;;;;4.55;2.85;;;;;;;;;;5097293;22;20513;-66
2024/03/25 05:51:51;;;;;;;7.65;2.28;;;;;;;;;;5074387;28;20029;-66
2024/03/25 05:54:37;;;;;;;5.97;2.78;;;;;;;;;;5075128;28;20016;-66
2024/03/25 05:57:22;;;;;;;5.00;2.30;;;;;;;;;;5072802;28;20024;-66
2024/03/25 06:00:09;;;;;;;6.50;2.38;;;;;;;;;;5073448;28;20115;-66
2024/03/25 06:02:54;;;;;;;4.70;1.83;;;;;;;;;;5062164;28;20031;-66
2024/03/25 06:05:40;;;;;;;4.72;2.20;;;;;;;;;;5057024;28;20029;-66
2024/03/25 06:08:26;;;;;;;4.05;2.72;;;;;;;;;;5071447;28;20020;-66
2024/03/25 06:11:12;;;;;;;6.15;2.15;;;;;;;;;;5058076;28;20020;-67
2024/03/25 06:13:57;;;;;;;5.43;2.42;;;;;;;;;;5074208;28;20477;-66
2024/03/25 06:16:43;;;;;;;7.40;2.20;;;;;;;;;;5074323;28;20432;-67
2024/03/25 06:19:28;;;;;;;4.95;2.13;;;;;;;;;;5074124;28;20058;-67
2024/03/25 06:22:14;;;;;;;5.57;2.20;;;;;;;;;;5074257;28;20158;-67
2024/03/25 06:25:00;;;;;;;6.45;2.78;;;;;;;;;;5070549;28;20016;-67
2024/03/25 06:27:45;;;;;;;3.38;2.20;;;;;;;;;;5052879;28;20028;-66
2024/03/25 06:36:40;;;;;;;7.15;2.58;;;;;;;;;;5041445;28;20017;-67
2024/03/25 06:39:26;;;;;;;8.50;2.20;;;;;;;;;;5039305;28;20025;-66
2024/03/25 06:42:11;;;;;;;10.77;2.45;;;;;;;;;;5069948;28;20082;-67
2024/03/25 06:44:57;;;;;;;6.00;2.50;;;;;;;;;;5073222;28;20555;-67
2024/03/25 06:47:43;;;;;;;6.03;2.55;;;;;;;;;;5054728;28;20029;-67
2024/03/25 06:50:28;;;;;;;12.38;2.85;;;;;;;;;;5051322;28;20479;-67
2024/03/25 06:53:14;;;;;;;6.07;2.78;;;;;;;;;;5055120;28;20041;-66
2024/03/25 06:56:00;;;;;;;10.45;2.95;;;;;;;;;;5051792;28;20055;-66
2024/03/25 06:58:45;;;;;;;11.27;3.00;;;;;;;;;;5057604;28;20024;-67
2024/03/25 07:01:31;;;;;;;6.82;2.42;;;;;;;;;;5070781;28;20028;-67
2024/03/25 07:04:17;;;;;;;14.02;3.03;;;;;;;;;;5038521;28;20494;-66
2024/03/25 07:07:04;;;;;;;7.50;3.03;;;;;;;;;;5054809;28;20120;-66
2024/03/25 07:09:50;;;;;;;12.85;2.60;;;;;;;;;;5052037;28;20123;-67
2024/03/25 07:12:35;;;;;;;13.68;2.85;;;;;;;;;;5051766;28;20033;-66
2024/03/25 07:15:21;;;;;;;5.82;2.20;;;;;;;;;;5051880;28;20017;-66
2024/03/25 07:18:07;;;;;;;7.82;2.92;;;;;;;;;;5054199;28;20032;-67
2024/03/25 07:20:52;;;;;;;13.60;3.03;;;;;;;;;;5052984;28;20025;-67
2024/03/25 07:23:38;;;;;;;8.60;2.60;;;;;;;;;;5067444;28;20024;-67
2024/03/25 07:26:23;;;;;;;10.10;3.08;;;;;;;;;;5059038;28;20107;-67
2024/03/25 07:29:09;;;;;;;13.75;3.55;;;;;;;;;;5051350;28;20025;-67
2024/03/25 07:31:55;;;;;;;6.38;2.25;;;;;;;;;;5054118;28;20033;-67
2024/03/25 07:34:40;;;;;;;12.18;2.60;;;;;;;;;;5068461;28;20059;-67
2024/03/25 07:37:26;;;;;;;11.93;2.85;;;;;;;;;;5060943;28;20504;-66
2024/03/25 07:40:12;;;;;;;5.80;2.42;;;;;;;;;;5052618;28;20021;-67
2024/03/25 07:42:58;;;;;;;6.75;2.13;;;;;;;;;;5041382;28;20052;-66
2024/03/25 07:45:43;;;;;;;13.90;2.40;;;;;;;;;;5053241;28;20503;-67
2024/03/25 07:48:29;;;;;;;9.50;3.00;;;;;;;;;;5051141;28;20029;-66
2024/03/25 07:51:15;;;;;;;7.20;2.25;;;;;;;;;;5051936;28;20052;-67
2024/03/25 07:54:00;;;;;;;10.95;2.47;;;;;;;;;;5051523;28;20055;-67
2024/03/25 07:56:47;;;;;;;13.93;2.75;;;;;;;;;;5050901;28;20024;-66
2024/03/25 07:59:32;;;;;;;7.43;3.05;;;;;;;;;;5054303;28;20033;-66
2024/03/25 08:02:18;;;;;;;12.93;2.55;;;;;;;;;;5051360;28;20017;-66
2024/03/25 08:05:04;;;;;;;8.93;3.28;;;;;;;;;;5060497;28;20444;-66
2024/03/25 08:07:49;;;;;;;9.57;2.30;;;;;;;;;;5050168;28;20025;-66
2024/03/25 08:10:37;;;;;;;5.78;2.25;;;;;;;;;;5062937;28;20183;-66
2024/03/25 08:13:23;;;;;;;6.15;2.47;;;;;;;;;;5071620;28;20021;-66
2024/03/25 08:16:08;;;;;;;12.85;2.63;;;;;;;;;;5063965;28;20063;-66
2024/03/25 08:18:54;;;;;;;6.35;2.90;;;;;;;;;;5051593;28;20569;-66
2024/03/25 08:21:40;;;;;;;11.63;2.50;;;;;;;;;;5060165;28;20123;-67
2024/03/25 08:24:25;;;;;;;7.68;2.40;;;;;;;;;;5070758;28;20111;-67
2024/03/25 08:27:11;;;;;;;7.65;2.08;;;;;;;;;;5069883;28;20020;-67
2024/03/25 08:29:57;;;;;;;5.78;1.95;;;;;;;;;;5067422;28;20068;-67
2024/03/25 08:32:42;;;;;;;8.82;2.20;;;;;;;;;;5051522;28;20021;-67
2024/03/25 08:35:28;;;;;;;7.97;2.05;;;;;;;;;;5065214;28;20020;-67
2024/03/25 08:38:13;;;;;;;7.28;2.63;;;;;;;;;;5071047;28;20402;-67
2024/03/25 08:40:59;;;;;;;8.38;2.28;;;;;;;;;;5052060;28;20024;-67
2024/03/25 08:43:45;;;;;;;11.07;2.22;;;;;;;;;;5051277;28;20498;-67
2024/03/25 08:46:31;;;;;;;8.32;2.63;;;;;;;;;;5052998;28;20451;-67
2024/03/25 08:49:16;;;;;;;15.30;2.53;;;;;;;;;;5034897;28;20032;-67
2024/03/25 08:52:02;;;;;;;4.70;1.63;;;;;;;;;;5053188;28;20040;-67
2024/03/25 08:54:48;;;;;;;7.35;2.13;;;;;;;;;;5050634;28;20501;-67
2024/03/25 08:57:34;;;;;;;6.25;1.90;;;;;;;;;;5055053;28;20410;-67
2024/03/25 09:00:20;;;;;;;13.43;2.50;;;;;;;;;;5051074;28;20029;-67
2024/03/25 09:03:05;;;;;;;6.30;2.22;;;;;;;;;;5060064;28;20052;-67
2024/03/25 09:05:51;;;;;;;14.68;2.47;;;;;;;;;;5053068;28;20450;-67
2024/03/25 09:11:02;;;;;;;8.05;2.25;;;;;;;;;;5062314;28;20055;-67
2024/03/25 09:11:42;;;;;;;4.22;1.90;;;;;;;;;;5071058;28;20058;-67
2024/03/25 09:14:28;;;;;;;7.30;2.00;;;;;;;;;;5055769;28;20029;-67
2024/03/25 09:17:13;;;;;;;6.07;2.33;;;;;;;;;;5054429;28;20426;-67
2024/03/25 09:19:59;;;;;;;5.30;2.38;;;;;;;;;;5056797;28;20032;-67
2024/03/25 09:22:45;;;;;;;5.60;2.28;;;;;;;;;;5055470;28;20116;-67
2024/03/25 09:25:30;;;;;;;5.80;1.92;;;;;;;;;;5042006;28;20025;-67
2024/03/25 09:28:16;;;;;;;7.35;2.08;;;;;;;;;;5058571;28;20056;-67
2024/03/25 09:31:02;;;;;;;6.97;1.77;;;;;;;;;;5053675;28;20116;-68
2024/03/25 09:33:47;;;;;;;6.93;1.92;;;;;;;;;;5060536;28;20044;-68
2024/03/25 09:36:33;;;;;;;6.07;1.92;;;;;;;;;;5069908;28;20017;-68
2024/03/25 09:39:19;;;;;;;7.53;1.77;;;;;;;;;;5057726;28;20029;-68
2024/03/25 09:42:07;;;;;;;5.20;2.33;;;;;;;;;;5074211;28;20115;-67
2024/03/25 09:44:54;;;;;;;7.07;2.08;;;;;;;;;;5058921;28;20543;-68
2024/03/25 09:47:39;;;;;;;7.35;2.63;;;;;;;;;;5038894;28;20033;-68
2024/03/25 09:50:25;;;;;;;11.45;2.15;;;;;;;;;;5054262;28;20423;-67
2024/03/25 09:53:11;;;;;;;7.88;2.35;;;;;;;;;;5056597;28;20112;-68
2024/03/25 09:55:57;;;;;;;4.38;1.77;;;;;;;;;;5053189;28;20100;-67
2024/03/25 09:58:44;;;;;;;9.88;1.67;;;;;;;;;;5057891;28;20039;-67
2024/03/25 10:01:29;;;;;;;6.72;2.00;;;;;;;;;;5038390;28;20052;-69
2024/03/25 10:04:15;;;;;;;7.93;2.00;;;;;;;;;;5056592;28;20063;-67
2024/03/25 10:07:00;;;;;;;6.18;1.98;;;;;;;;;;5063831;28;20059;-68
2024/03/25 10:09:46;;;;;;;8.85;1.95;;;;;;;;;;5062022;28;20029;-68
2024/03/25 10:12:32;;;;;;;6.55;2.15;;;;;;;;;;5058801;28;20099;-68
2024/03/25 10:15:18;;;;;;;7.97;2.17;;;;;;;;;;5058656;28;20546;-68
2024/03/25 10:18:04;;;;;;;4.53;1.85;;;;;;;;;;5073227;28;20063;-68
2024/03/25 10:20:53;;;;;;;9.18;2.00;;;;;;;;;;5070022;28;20024;-68
2024/03/25 10:23:42;;;;;;;7.80;2.03;;;;;;;;;;5052359;28;20021;-68
2024/03/25 10:26:29;;;;;;;4.05;1.55;;;;;;;;;;5025533;28;20135;-68
2024/03/25 10:29:15;;;;;;;6.95;2.03;;;;;;;;;;5069360;28;20060;-68
2024/03/25 10:32:01;;;;;;;5.18;1.67;;;;;;;;;;5072908;28;20112;-68
2024/03/25 10:34:47;;;;;;;11.23;2.05;;;;;;;;;;5050692;28;20039;-68
2024/03/25 10:37:33;;;;;;;4.22;2.28;;;;;;;;;;5058629;28;20571;-68
2024/03/25 10:40:19;;;;;;;5.10;1.67;;;;;;;;;;5039261;28;20095;-68
2024/03/25 10:43:07;;;;;;;7.70;2.10;;;;;;;;;;5053044;28;20029;-67
2024/03/25 10:45:55;;;;;;;4.18;1.58;;;;;;;;;;5052508;28;20056;-67
2024/03/25 10:48:42;;;;;;;6.97;1.65;;;;;;;;;;5039280;28;20036;-67
2024/03/25 10:51:29;;;;;;;3.35;1.70;;;;;;;;;;5039851;28;20170;-67
2024/03/25 10:54:15;;;;;;;4.72;1.80;;;;;;;;;;5039472;28;20025;-67
2024/03/25 10:57:03;;;;;;;5.43;1.83;;;;;;;;;;5038039;28;20091;-67
2024/03/25 10:59:49;;;;;;;2.17;1.40;;;;;;;;;;5038037;28;20025;-67
2024/03/25 11:02:35;;;;;;;9.02;1.70;;;;;;;;;;5053129;28;20025;-67
2024/03/25 11:05:21;;;;;;;4.43;1.00;;;;;;;;;;5052267;28;20052;-67
2024/03/25 11:08:13;;;;;;;6.53;1.23;;;;;;;;;;5052291;28;20027;-67
2024/03/25 11:11:00;;;;;;;9.57;2.25;;;;;;;;;;5053157;28;20021;-68
2024/03/25 11:13:46;;;;;;;3.70;1.52;;;;;;;;;;5052174;28;20029;-67
2024/03/25 11:16:32;;;;;;;4.47;1.38;;;;;;;;;;5052481;28;20052;-67
2024/03/25 11:19:18;;;;;;;5.63;1.42;;;;;;;;;;5052069;28;20064;-67
2024/03/25 11:22:09;;;;;;;9.30;2.13;;;;;;;;;;5051639;28;20402;-68
2024/03/25 11:24:55;;;;;;;6.43;2.00;;;;;;;;;;5053291;28;20059;-67
2024/03/25 11:27:43;;;;;;;5.28;1.58;;;;;;;;;;5052507;28;20024;-67
2024/03/25 11:30:29;;;;;;;4.53;2.28;;;;;;;;;;5037490;28;20371;-67
2024/03/25 11:33:15;;;;;;;6.43;1.30;;;;;;;;;;5038150;28;20039;-68
2024/03/25 11:36:01;;;;;;;3.20;1.95;;;;;;;;;;5052157;28;20387;-68
2024/03/25 11:38:57;;;;;;;3.38;1.40;;;;;;;;;;5051759;28;20120;-67
2024/03/25 11:41:43;;;;;;;3.25;1.30;;;;;;;;;;5052500;28;20490;-68
2024/03/25 11:44:29;;;;;;;4.55;1.40;;;;;;;;;;5052349;28;20025;-67
2024/03/25 11:47:14;;;;;;;6.15;1.85;;;;;;;;;;5051676;28;20406;-67
2024/03/25 11:50:00;;;;;;;4.68;1.65;;;;;;;;;;5060789;22;20049;-65
2024/03/25 11:52:46;;;;;;;6.22;1.85;;;;;;;;;;5032111;28;20036;-65
2024/03/25 11:55:32;;;;;;;6.07;1.70;;;;;;;;;;5031054;28;20070;-65
2024/03/25 11:58:17;;;;;;;3.78;2.20;;;;;;;;;;5030397;28;20033;-64
2024/03/25 12:01:03;;;;;;;4.07;1.70;;;;;;;;;;5031059;28;20029;-65
2024/03/25 12:03:49;;;;;;;11.07;1.92;;;;;;;;;;5031857;28;20064;-65
2024/03/25 12:06:35;;;;;;;4.85;1.63;;;;;;;;;;5031533;28;20502;-65
2024/03/25 12:12:25;;;;;;;7.25;1.88;;;;;;;;;;5025387;28;20082;-64
2024/03/25 12:15:11;;;;;;;5.93;1.88;;;;;;;;;;5031548;28;20026;-65
2024/03/25 12:17:57;;;;;;;6.50;1.65;;;;;;;;;;5030923;28;20112;-64
2024/03/25 12:20:45;;;;;;;5.72;1.77;;;;;;;;;;5030585;28;20025;-65
2024/03/25 12:23:32;;;;;;;7.72;2.00;;;;;;;;;;5030493;28;20106;-65
2024/03/25 12:26:17;;;;;;;2.55;2.03;;;;;;;;;;5015756;28;20034;-65
2024/03/25 12:29:04;;;;;;;7.72;1.95;;;;;;;;;;5011899;28;20028;-64
2024/03/25 12:31:54;;;;;;;6.40;1.70;;;;;;;;;;5012015;28;20463;-65
2024/03/25 12:34:42;;;;;;;8.40;1.60;;;;;;;;;;5014589;28;20117;-65
2024/03/25 12:37:27;;;;;;;3.95;1.60;;;;;;;;;;5011422;28;20030;-64
2024/03/25 12:40:25;;;;;;;5.45;1.98;;;;;;;;;;5012638;28;20403;-65
2024/03/25 12:43:17;;;;;;;6.05;1.83;;;;;;;;;;5028774;28;20021;-65
2024/03/25 12:46:05;;;;;;;9.35;2.47;;;;;;;;;;5034429;28;20025;-64
2024/03/25 12:48:51;;;;;;;4.15;1.58;;;;;;;;;;5025055;28;20045;-64
2024/03/25 12:51:36;;;;;;;9.90;2.25;;;;;;;;;;5036026;28;20022;-65
2024/03/25 12:54:22;;;;;;;8.23;2.75;;;;;;;;;;5018616;28;20124;-65
2024/03/25 12:57:08;;;;;;;9.13;3.22;;;;;;;;;;5014369;28;20022;-65
2024/03/25 12:59:53;;;;;;;9.07;2.13;;;;;;;;;;5017377;28;20054;-65
2024/03/25 13:02:39;;;;;;;5.35;1.40;;;;;;;;;;5014541;28;20029;-65
2024/03/25 13:05:25;;;;;;;3.03;1.33;;;;;;;;;;5017827;28;20108;-65
2024/03/25 13:08:10;;;;;;;4.80;2.08;;;;;;;;;;5021973;28;20028;-65
2024/03/25 13:10:56;;;;;;;5.03;1.60;;;;;;;;;;5033562;28;20040;-65
2024/03/25 13:13:41;;;;;;;4.93;1.40;;;;;;;;;;5033997;28;20029;-64
2024/03/25 13:16:27;;;;;;;9.20;2.05;;;;;;;;;;5014955;28;20021;-65
2024/03/25 13:19:13;;;;;;;5.00;1.67;;;;;;;;;;5013809;28;20024;-64
2024/03/25 13:21:58;;;;;;;2.63;1.83;;;;;;;;;;5015685;28;20530;-65
2024/03/25 13:24:44;;;;;;;8.25;2.15;;;;;;;;;;5013996;28;20038;-64
2024/03/25 13:27:29;;;;;;;2.60;1.60;;;;;;;;;;5016377;28;20061;-64
2024/03/25 13:30:15;;;;;;;6.18;2.08;;;;;;;;;;5013438;28;20495;-64
2024/03/25 13:33:01;;;;;;;6.40;2.83;;;;;;;;;;5019500;28;20512;-64
2024/03/25 13:35:47;;;;;;;3.05;1.65;;;;;;;;;;5019547;28;20022;-64
2024/03/25 13:38:33;;;;;;;6.90;2.00;;;;;;;;;;5017022;28;20029;-64
2024/03/25 13:41:21;;;;;;;7.95;1.90;;;;;;;;;;5015922;28;20510;-65
2024/03/25 13:44:08;;;;;;;7.13;1.48;;;;;;;;;;5014147;28;20112;-64
2024/03/25 13:46:54;;;;;;;5.72;1.60;;;;;;;;;;5021535;28;20112;-65
2024/03/25 13:49:40;;;;;;;8.10;2.40;;;;;;;;;;5032634;28;20400;-64
2024/03/25 13:52:25;;;;;;;3.47;1.50;;;;;;;;;;5023026;28;20026;-65
2024/03/25 13:55:11;;;;;;;2.95;0.90;;;;;;;;;;5013934;28;20022;-64
2024/03/25 13:57:56;;;;;;;8.32;1.70;;;;;;;;;;5017790;28;20088;-65
2024/03/25 14:00:42;;;;;;;7.50;2.35;;;;;;;;;;5013331;28;20372;-64
2024/03/25 14:03:28;;;;;;;2.75;1.30;;;;;;;;;;5012988;28;20064;-65
2024/03/25 14:06:13;;;;;;;8.38;1.67;;;;;;;;;;5030568;28;20040;-65
2024/03/25 14:08:59;;;;;;;6.47;3.50;;;;;;;;;;5032172;28;20060;-65
2024/03/25 14:11:45;;;;;;;4.35;2.15;;;;;;;;;;5033312;28;20388;-65
2024/03/25 14:14:31;;;;;;;6.70;1.80;;;;;;;;;;5033042;28;20152;-65
2024/03/25 14:17:16;;;;;;;7.60;1.40;;;;;;;;;;5025799;28;20029;-65
2024/03/25 14:20:06;;;;;;;6.72;1.27;;;;;;;;;;5022977;28;20080;-65
2024/03/25 14:22:51;;;;;;;5.05;1.95;;;;;;;;;;5026014;28;20029;-65
2024/03/25 14:25:37;;;;;;;4.00;1.50;;;;;;;;;;5032168;28;20025;-64
2024/03/25 14:28:23;;;;;;;6.25;1.63;;;;;;;;;;5015256;28;20037;-65
2024/03/25 14:31:09;;;;;;;22.60;2.08;;;;;;;;;;5012993;28;20460;-64
2024/03/25 14:33:54;;;;;;;6.30;2.30;;;;;;;;;;5014661;28;20168;-65
2024/03/25 14:36:40;;;;;;;4.57;2.63;;;;;;;;;;5012887;28;20530;-65
2024/03/25 14:39:26;;;;;;;7.47;1.85;;;;;;;;;;5024972;28;20026;-65
2024/03/25 14:42:11;;;;;;;3.45;1.60;;;;;;;;;;5031938;28;20112;-64
2024/03/25 14:44:57;;;;;;;3.90;1.92;;;;;;;;;;5032148;28;20028;-65
2024/03/25 14:47:42;;;;;;;4.38;2.05;;;;;;;;;;5030840;28;20080;-65
2024/03/25 14:50:28;;;;;;;3.67;1.45;;;;;;;;;;5031804;28;20037;-65
2024/03/25 14:53:14;;;;;;;10.10;2.55;;;;;;;;;;5012628;28;20021;-64
2024/03/25 14:55:59;;;;;;;4.78;1.73;;;;;;;;;;5015816;28;20483;-63
2024/03/25 14:58:45;;;;;;;7.80;1.95;;;;;;;;;;5028260;28;20025;-65
2024/03/25 15:01:35;;;;;;;4.25;1.75;;;;;;;;;;5032181;28;20017;-65
2024/03/25 15:04:21;;;;;;;7.88;1.92;;;;;;;;;;5032190;28;20124;-65
2024/03/25 15:07:06;;;;;;;6.97;1.88;;;;;;;;;;5026850;28;20034;-64
2024/03/25 15:09:52;;;;;;;9.60;2.72;;;;;;;;;;5027764;28;20414;-65
2024/03/25 15:12:38;;;;;;;3.60;1.73;;;;;;;;;;5030845;28;20068;-64
2024/03/25 15:15:24;;;;;;;3.22;1.50;;;;;;;;;;5017272;28;20018;-65
2024/03/25 15:18:09;;;;;;;3.53;1.52;;;;;;;;;;5012575;28;20033;-64
2024/03/25 15:21:04;;;;;;;10.00;1.70;;;;;;;;;;5017380;28;20503;-65
2024/03/25 15:23:50;;;;;;;7.32;2.10;;;;;;;;;;5013020;28;20029;-65
2024/03/25 15:26:35;;;;;;;6.53;1.73;;;;;;;;;;5014313;28;20033;-65
2024/03/25 15:29:21;;;;;;;5.40;1.67;;;;;;;;;;5011631;28;20032;-65
2024/03/25 15:32:07;;;;;;;8.38;2.45;;;;;;;;;;5015680;28;20376;-65
2024/03/25 15:34:52;;;;;;;4.32;1.40;;;;;;;;;;5030353;28;20017;-63
2024/03/25 15:37:38;;;;;;;5.22;2.22;;;;;;;;;;5011494;28;20030;-65
2024/03/25 15:40:24;;;;;;;4.78;1.23;;;;;;;;;;5016880;28;20053;-64
2024/03/25 15:43:09;;;;;;;7.10;1.17;;;;;;;;;;5011894;28;20033;-64
2024/03/25 15:45:56;;;;;;;3.90;1.45;;;;;;;;;;5016683;28;20407;-65
2024/03/25 15:48:43;;;;;;;3.33;1.80;;;;;;;;;;5012447;28;20021;-65
2024/03/25 15:51:28;;;;;;;5.68;1.80;;;;;;;;;;5029770;28;20032;-66
2024/03/25 15:54:14;;;;;;;7.53;1.75;;;;;;;;;;5022764;28;20030;-65
2024/03/25 15:56:59;;;;;;;6.22;1.73;;;;;;;;;;5012389;28;20514;-65
2024/03/25 15:59:45;;;;;;;5.05;1.73;;;;;;;;;;5013070;28;20065;-65
2024/03/25 16:02:31;;;;;;;6.50;1.27;;;;;;;;;;5011585;28;20137;-65
2024/03/25 16:05:17;;;;;;;4.45;1.60;;;;;;;;;;5016778;28;20025;-65
2024/03/25 16:08:03;;;;;;;10.63;1.83;;;;;;;;;;5013558;28;20022;-65
2024/03/25 16:10:49;;;;;;;9.48;2.33;;;;;;;;;;5011934;28;20026;-65
2024/03/25 16:13:35;;;;;;;9.20;1.80;;;;;;;;;;5013793;28;20021;-65
2024/03/25 16:16:21;;;;;;;5.45;1.60;;;;;;;;;;5015844;28;20017;-65
2024/03/25 16:19:07;;;;;;;4.45;1.33;;;;;;;;;;5017786;28;20116;-65
2024/03/25 16:21:53;;;;;;;5.32;2.00;;;;;;;;;;5033362;28;20034;-65
2024/03/25 16:24:38;;;;;;;5.30;1.70;;;;;;;;;;5030647;28;20112;-64
2024/03/25 16:27:24;;;;;;;10.70;2.90;;;;;;;;;;5016548;28;20407;-65
2024/03/25 16:30:10;;;;;;;6.38;1.95;;;;;;;;;;5016947;28;20021;-65
2024/03/25 16:32:56;;;;;;;6.45;1.58;;;;;;;;;;5015961;28;20025;-65
2024/03/25 16:35:41;;;;;;;6.13;1.75;;;;;;;;;;5014924;28;20052;-65
2024/03/25 16:38:27;;;;;;;9.07;2.03;;;;;;;;;;5015215;28;20025;-65
2024/03/25 16:41:13;;;;;;;5.72;1.83;;;;;;;;;;5013875;28;20025;-65